createdAt,value
2023-06-24T00:00:46.365Z,7.88
2023-06-24T00:03:18.389Z,7.13
2023-06-24T00:05:50.769Z,8.32
2023-06-24T00:08:24.456Z,7.68
2023-06-24T00:10:52.066Z,6.80
2023-06-24T00:13:19.373Z,7.88
2023-06-24T00:15:46.590Z,8.43
2023-06-24T00:18:14.139Z,7.80
2023-06-24T00:20:44.456Z,8.18
2023-06-24T00:23:16.025Z,8.20
2023-06-24T00:25:44.088Z,7.72
2023-06-24T00:28:11.307Z,7.68
2023-06-24T00:30:38.497Z,7.22
2023-06-24T00:33:07.224Z,7.63
2023-06-24T00:35:34.272Z,7.88
2023-06-24T00:38:01.566Z,7.45
2023-06-24T00:40:29.583Z,7.72
2023-06-24T00:42:57.353Z,7.43
2023-06-24T00:45:25.334Z,8.23
2023-06-24T00:47:53.468Z,8.15
2023-06-24T00:50:20.504Z,7.65
2023-06-24T00:52:48.658Z,7.43
2023-06-24T00:55:18.344Z,8.07
2023-06-24T00:57:55.934Z,7.75
2023-06-24T01:00:34.081Z,7.47
2023-06-24T01:03:02.254Z,7.50
2023-06-24T01:05:36.871Z,8.48
2023-06-24T01:08:04.428Z,7.75
2023-06-24T01:10:31.565Z,7.35
2023-06-24T01:12:59.045Z,9.30
2023-06-24T01:15:29.814Z,8.40
2023-06-24T01:18:09.593Z,9.13
2023-06-24T01:21:04.552Z,9.63
2023-06-24T01:24:16.894Z,8.48
2023-06-24T01:26:56.317Z,9.15
2023-06-24T01:30:03.701Z,8.50
2023-06-24T01:32:37.651Z,8.50
2023-06-24T01:35:13.300Z,8.90
2023-06-24T01:37:49.049Z,8.00
2023-06-24T01:40:26.641Z,7.60
2023-06-24T01:42:54.810Z,8.23
2023-06-24T01:45:26.215Z,9.90
2023-06-24T01:48:19.556Z,9.98
2023-06-24T01:51:02.684Z,11.70
2023-06-24T01:56:00.458Z,10.95
2023-06-24T01:58:27.676Z,11.48
2023-06-24T02:00:56.677Z,12.82
2023-06-24T02:03:25.209Z,12.55
2023-06-24T02:05:54.741Z,13.18
2023-06-24T02:08:23.957Z,12.70
2023-06-24T02:10:52.619Z,12.65
2023-06-24T02:13:21.935Z,12.18
2023-06-24T02:15:51.855Z,13.43
2023-06-24T02:18:21.196Z,13.35
2023-06-24T02:20:50.715Z,12.43
2023-06-24T02:23:21.364Z,13.07
2023-06-24T02:25:50.386Z,13.52
2023-06-24T02:28:19.501Z,13.38
2023-06-24T02:30:47.705Z,13.20
2023-06-24T02:33:16.493Z,12.98
2023-06-24T02:35:47.283Z,12.57
2023-06-24T02:38:14.490Z,12.98
2023-06-24T02:40:44.366Z,11.70
2023-06-24T02:43:11.459Z,12.20
2023-06-24T02:45:40.257Z,12.38
2023-06-24T02:48:10.142Z,11.10
2023-06-24T02:50:39.114Z,11.68
2023-06-24T02:53:06.739Z,11.95
2023-06-24T02:55:37.257Z,11.50
2023-06-24T02:58:09.479Z,12.95
2023-06-24T03:00:51.134Z,12.75
2023-06-24T03:03:30.928Z,12.00
2023-06-24T03:05:59.125Z,12.80
2023-06-24T03:08:30.712Z,13.40
2023-06-24T03:10:59.612Z,12.93
2023-06-24T03:13:30.567Z,13.13
2023-06-24T03:16:13.417Z,12.63
2023-06-24T03:18:49.465Z,12.85
2023-06-24T03:21:17.112Z,12.30
2023-06-24T03:23:44.922Z,12.43
2023-06-24T03:26:14.693Z,13.45
2023-06-24T03:28:43.312Z,11.65
2023-06-24T03:31:19.089Z,12.32
2023-06-24T03:33:46.825Z,10.95
2023-06-24T03:36:16.332Z,10.57
2023-06-24T03:38:44.654Z,10.30
2023-06-24T03:41:11.754Z,10.60
2023-06-24T03:43:40.761Z,10.10
2023-06-24T03:46:08.103Z,10.52
2023-06-24T03:48:36.685Z,10.30
2023-06-24T03:51:04.123Z,10.57
2023-06-24T03:53:32.055Z,10.25
2023-06-24T03:55:59.388Z,9.90
2023-06-24T03:58:27.288Z,10.75
2023-06-24T04:00:57.968Z,9.23
2023-06-24T04:03:29.981Z,8.93
2023-06-24T04:05:57.311Z,8.80
2023-06-24T04:08:30.675Z,9.18
2023-06-24T04:11:01.167Z,9.63
2023-06-24T04:13:28.395Z,9.48
2023-06-24T04:15:55.633Z,9.95
2023-06-24T04:18:22.849Z,9.95
2023-06-24T04:20:50.046Z,9.27
2023-06-24T04:23:17.397Z,9.50
2023-06-24T04:25:44.705Z,10.20
2023-06-24T04:28:11.826Z,10.27
2023-06-24T04:30:42.150Z,11.00
2023-06-24T04:33:10.695Z,11.10
2023-06-24T04:35:38.520Z,10.82
2023-06-24T04:38:06.321Z,11.50
2023-06-24T04:40:33.873Z,11.90
2023-06-24T04:43:01.464Z,10.95
2023-06-24T04:45:29.030Z,12.73
2023-06-24T04:47:56.263Z,12.40
2023-06-24T04:50:23.458Z,12.50
2023-06-24T04:52:55.703Z,12.63
2023-06-24T04:55:23.615Z,12.45
2023-06-24T04:57:51.026Z,12.07
2023-06-24T05:00:18.468Z,11.85
2023-06-24T05:02:46.752Z,11.25
2023-06-24T05:05:14.077Z,11.60
2023-06-24T05:07:42.413Z,11.43
2023-06-24T05:10:09.668Z,11.73
2023-06-24T05:12:36.773Z,10.68
2023-06-24T05:15:04.839Z,12.80
2023-06-24T05:17:31.883Z,11.93
2023-06-24T05:20:00.004Z,11.55
2023-06-24T05:22:27.267Z,13.02
2023-06-24T05:24:54.316Z,11.70
2023-06-24T05:27:21.520Z,11.10
2023-06-24T05:29:48.784Z,11.52
2023-06-24T05:32:18.604Z,10.70
2023-06-24T05:34:45.850Z,11.48
2023-06-24T05:37:13.032Z,12.00
2023-06-24T05:39:40.262Z,12.43
2023-06-24T05:42:07.399Z,11.77
2023-06-24T05:44:35.228Z,11.35
2023-06-24T05:47:02.511Z,11.57
2023-06-24T05:49:29.754Z,12.05
2023-06-24T05:51:57.881Z,11.93
2023-06-24T05:54:25.217Z,11.75
2023-06-24T05:56:52.462Z,10.93
2023-06-24T05:59:19.747Z,10.68
2023-06-24T06:01:46.964Z,10.48
2023-06-24T06:04:14.204Z,10.48
2023-06-24T06:06:42.276Z,11.02
2023-06-24T06:09:09.494Z,11.48
2023-06-24T06:11:36.748Z,11.80
2023-06-24T06:14:03.830Z,10.73
2023-06-24T06:16:31.024Z,11.55
2023-06-24T06:18:58.261Z,11.38
2023-06-24T06:21:26.237Z,11.15
2023-06-24T06:23:53.375Z,11.48
2023-06-24T06:26:20.708Z,10.48
2023-06-24T06:28:48.685Z,11.07
2023-06-24T06:31:16.431Z,10.75
2023-06-24T06:33:44.963Z,10.25
2023-06-24T06:36:12.132Z,11.70
2023-06-24T06:38:39.548Z,10.50
2023-06-24T06:41:06.568Z,10.00
2023-06-24T06:43:35.459Z,10.60
2023-06-24T06:46:02.619Z,10.35
2023-06-24T06:48:30.681Z,10.70
2023-06-24T06:50:58.322Z,10.57
2023-06-24T06:53:26.045Z,10.55
2023-06-24T06:55:53.168Z,9.45
2023-06-24T06:58:20.448Z,11.25
2023-06-24T07:00:47.976Z,12.25
2023-06-24T07:03:15.319Z,11.27
2023-06-24T07:05:43.213Z,12.75
2023-06-24T07:08:10.623Z,11.90
2023-06-24T07:10:37.735Z,12.50
2023-06-24T07:13:05.073Z,12.88
2023-06-24T07:15:32.286Z,14.38
2023-06-24T07:17:59.475Z,13.52
2023-06-24T07:20:26.554Z,13.65
2023-06-24T07:22:53.861Z,13.70
2023-06-24T07:25:21.014Z,12.85
2023-06-24T07:27:48.227Z,12.73
2023-06-24T07:30:15.423Z,12.13
2023-06-24T07:32:42.606Z,12.63
2023-06-24T07:35:10.096Z,11.02
2023-06-24T07:37:37.287Z,10.95
2023-06-24T07:40:05.777Z,10.55
2023-06-24T07:42:33.095Z,9.80
2023-06-24T07:45:00.361Z,9.57
2023-06-24T07:47:27.563Z,9.52
2023-06-24T07:49:54.716Z,9.60
2023-06-24T07:52:21.891Z,9.90
2023-06-24T07:54:49.107Z,9.00
2023-06-24T07:57:17.693Z,8.63
2023-06-24T07:59:46.126Z,8.68
2023-06-24T08:02:13.268Z,7.88
2023-06-24T08:04:40.739Z,7.72
2023-06-24T08:07:09.069Z,8.63
2023-06-24T08:09:36.148Z,8.65
2023-06-24T08:12:03.538Z,8.73
2023-06-24T08:14:30.673Z,7.90
2023-06-24T08:16:57.941Z,7.85
2023-06-24T08:19:25.784Z,7.47
2023-06-24T08:21:54.823Z,7.57
2023-06-24T08:24:22.016Z,7.53
2023-06-24T08:26:49.298Z,7.47
2023-06-24T08:29:16.548Z,7.28
2023-06-24T08:31:43.693Z,8.25
2023-06-24T08:34:10.823Z,7.45
2023-06-24T08:36:38.582Z,6.63
2023-06-24T08:39:05.981Z,6.85
2023-06-24T08:41:33.508Z,7.80
2023-06-24T08:44:00.840Z,8.32
2023-06-24T08:46:28.993Z,8.95
2023-06-24T08:49:04.315Z,8.63
2023-06-24T08:51:36.001Z,9.13
2023-06-24T08:54:03.701Z,8.05
2023-06-24T08:56:31.184Z,7.88
2023-06-24T08:58:58.510Z,7.63
2023-06-24T09:01:28.487Z,7.07
2023-06-24T09:03:55.683Z,7.28
2023-06-24T09:06:22.802Z,7.60
2023-06-24T09:08:56.734Z,8.18
2023-06-24T09:11:28.606Z,8.60
2023-06-24T09:14:03.610Z,9.18
2023-06-24T09:16:31.272Z,8.43
2023-06-24T09:18:58.383Z,8.38
2023-06-24T09:21:31.847Z,8.50
2023-06-24T09:24:00.166Z,9.07
2023-06-24T09:26:31.067Z,8.45
2023-06-24T09:28:59.190Z,9.18
2023-06-24T09:31:26.358Z,9.65
2023-06-24T09:33:57.834Z,9.50
2023-06-24T09:38:52.287Z,7.60
2023-06-24T09:41:19.521Z,9.15
2023-06-24T09:43:46.695Z,7.95
2023-06-24T09:46:15.323Z,9.20
2023-06-24T09:48:42.453Z,8.30
2023-06-24T09:51:10.096Z,8.88
2023-06-24T09:53:39.330Z,8.10
2023-06-24T09:56:11.261Z,8.88
2023-06-24T09:58:39.986Z,7.97
2023-06-24T10:01:08.094Z,8.35
2023-06-24T10:03:38.151Z,8.25
2023-06-24T10:06:06.842Z,8.95
2023-06-24T10:08:35.040Z,8.45
2023-06-24T10:11:07.335Z,8.93
2023-06-24T10:13:34.518Z,8.57
2023-06-24T10:16:01.644Z,8.82
2023-06-24T10:18:40.173Z,8.25
2023-06-24T10:21:11.130Z,8.85
2023-06-24T10:24:04.939Z,7.88
2023-06-24T10:26:38.251Z,7.97
2023-06-24T10:29:08.547Z,8.02
2023-06-24T10:31:42.165Z,8.00
2023-06-24T10:34:24.886Z,8.57
2023-06-24T10:37:12.970Z,10.18
2023-06-24T10:39:53.181Z,9.15
2023-06-24T10:42:29.267Z,9.50
2023-06-24T10:45:00.982Z,9.00
2023-06-24T10:47:29.449Z,8.30
2023-06-24T10:49:56.712Z,8.93
2023-06-24T10:52:24.874Z,8.02
2023-06-24T10:54:53.420Z,8.35
2023-06-24T10:57:28.817Z,7.60
2023-06-24T10:59:57.371Z,7.85
2023-06-24T11:02:26.759Z,8.65
2023-06-24T11:04:55.629Z,8.05
2023-06-24T11:07:24.590Z,7.90
2023-06-24T11:10:12.636Z,9.00
2023-06-24T11:12:41.503Z,8.85
2023-06-24T11:15:10.934Z,9.82
2023-06-24T11:17:39.496Z,10.10
2023-06-24T11:20:15.020Z,10.38
2023-06-24T11:22:43.315Z,10.50
2023-06-24T11:25:21.591Z,11.13
2023-06-24T11:27:51.355Z,10.90
2023-06-24T11:30:18.811Z,11.60
2023-06-24T11:32:46.932Z,10.95
2023-06-24T11:35:16.528Z,11.25
2023-06-24T11:37:45.308Z,11.57
2023-06-24T11:40:14.738Z,11.88
2023-06-24T11:42:45.594Z,11.30
2023-06-24T11:45:16.440Z,11.55
2023-06-24T11:47:44.421Z,12.05
2023-06-24T11:50:11.801Z,11.73
2023-06-24T11:52:50.198Z,11.32
2023-06-24T11:55:18.716Z,10.80
2023-06-24T11:58:08.399Z,11.00
2023-06-24T12:00:42.530Z,11.30
2023-06-24T12:03:12.397Z,12.57
2023-06-24T12:05:49.981Z,11.77
2023-06-24T12:08:18.020Z,10.90
2023-06-24T12:10:46.313Z,10.10
2023-06-24T12:13:14.312Z,10.70
2023-06-24T12:15:41.666Z,11.18
2023-06-24T12:18:09.191Z,10.82
2023-06-24T12:20:38.908Z,10.98
2023-06-24T12:23:06.770Z,11.75
2023-06-24T12:25:34.724Z,10.75
2023-06-24T12:28:02.253Z,9.73
2023-06-24T12:30:30.614Z,10.65
2023-06-24T12:32:58.160Z,9.70
2023-06-24T12:35:28.486Z,9.38
2023-06-24T12:37:56.257Z,9.32
2023-06-24T12:40:23.611Z,9.75
2023-06-24T12:42:50.898Z,8.68
2023-06-24T12:45:18.283Z,9.43
2023-06-24T12:47:45.729Z,9.55
2023-06-24T12:50:13.087Z,8.63
2023-06-24T12:52:40.794Z,9.30
2023-06-24T12:55:09.120Z,8.95
2023-06-24T12:57:37.434Z,9.15
2023-06-24T13:00:09.726Z,9.23
2023-06-24T13:02:40.339Z,8.70
2023-06-24T13:05:08.302Z,9.18
2023-06-24T13:07:35.787Z,8.93
2023-06-24T13:10:03.988Z,8.95
2023-06-24T13:12:31.294Z,9.88
2023-06-24T13:14:58.856Z,9.10
2023-06-24T13:17:26.406Z,8.75
2023-06-24T13:19:54.212Z,7.90
2023-06-24T13:22:21.656Z,7.85
2023-06-24T13:24:49.311Z,7.72
2023-06-24T13:27:18.069Z,8.02
2023-06-24T13:29:45.371Z,7.38
2023-06-24T13:32:12.680Z,7.22
2023-06-24T13:34:39.831Z,7.28
2023-06-24T13:37:07.181Z,7.30
2023-06-24T13:39:34.330Z,7.43
2023-06-24T13:42:02.035Z,6.43
2023-06-24T13:44:29.264Z,6.70
2023-06-24T13:46:56.458Z,6.47
2023-06-24T13:49:23.828Z,6.45
2023-06-24T13:51:51.108Z,6.45
2023-06-24T13:54:18.281Z,6.03
2023-06-24T13:56:45.899Z,6.60
2023-06-24T13:59:13.100Z,6.78
2023-06-24T14:01:40.321Z,5.90
2023-06-24T14:04:07.500Z,6.35
2023-06-24T14:06:36.178Z,6.72
2023-06-24T14:09:03.481Z,6.50
2023-06-24T14:11:30.819Z,6.55
2023-06-24T14:13:57.883Z,6.43
2023-06-24T14:16:25.113Z,6.43
2023-06-24T14:18:52.533Z,7.53
2023-06-24T14:21:19.742Z,6.68
2023-06-24T14:23:46.943Z,7.15
2023-06-24T14:26:14.154Z,7.28
2023-06-24T14:28:41.739Z,7.22
2023-06-24T14:31:09.357Z,7.78
2023-06-24T14:33:36.613Z,7.57
2023-06-24T14:36:04.008Z,7.22
2023-06-24T14:38:31.313Z,7.20
2023-06-24T14:40:58.619Z,7.85
2023-06-24T14:43:25.892Z,7.88
2023-06-24T14:45:53.360Z,8.15
2023-06-24T14:48:20.789Z,7.63
2023-06-24T14:50:47.890Z,7.40
2023-06-24T14:53:15.140Z,7.70
2023-06-24T14:55:42.263Z,7.40
2023-06-24T14:58:09.508Z,7.70
2023-06-24T15:00:37.865Z,8.48
2023-06-24T15:03:05.557Z,8.13
2023-06-24T15:05:34.541Z,7.90
2023-06-24T15:08:01.975Z,8.25
2023-06-24T15:10:29.204Z,7.68
2023-06-24T15:12:59.354Z,7.97
2023-06-24T15:15:26.627Z,7.63
2023-06-24T15:17:53.719Z,7.78
2023-06-24T15:20:20.952Z,8.32
2023-06-24T15:22:48.056Z,8.40
2023-06-24T15:25:15.587Z,7.93
2023-06-24T15:27:42.888Z,8.40
2023-06-24T15:30:10.331Z,9.55
2023-06-24T15:32:37.600Z,8.77
2023-06-24T15:35:05.633Z,7.88
2023-06-24T15:37:32.736Z,8.38
2023-06-24T15:40:00.526Z,8.77
2023-06-24T15:42:27.818Z,8.90
2023-06-24T15:44:55.179Z,8.93
2023-06-24T15:47:22.389Z,8.23
2023-06-24T15:49:49.847Z,8.55
2023-06-24T15:52:16.893Z,9.35
2023-06-24T15:54:44.157Z,9.02
2023-06-24T15:57:11.513Z,8.48
2023-06-24T15:59:39.199Z,8.80
2023-06-24T16:02:07.630Z,8.77
2023-06-24T16:04:34.860Z,9.20
2023-06-24T16:07:02.006Z,8.93
2023-06-24T16:09:30.254Z,9.45
2023-06-24T16:11:57.702Z,9.15
2023-06-24T16:14:24.935Z,9.40
2023-06-24T16:16:52.918Z,9.02
2023-06-24T16:19:20.614Z,9.00
2023-06-24T16:21:48.196Z,9.25
2023-06-24T16:24:15.322Z,9.05
2023-06-24T16:26:51.636Z,9.65
2023-06-24T16:29:20.144Z,9.45
2023-06-24T16:31:47.538Z,9.70
2023-06-24T16:34:23.695Z,9.27
2023-06-24T16:36:51.678Z,9.63
2023-06-24T16:39:19.970Z,9.32
2023-06-24T16:41:47.280Z,9.45
2023-06-24T16:44:14.673Z,10.02
2023-06-24T16:46:41.884Z,15.85
2023-06-24T16:49:09.090Z,12.70
2023-06-24T16:51:36.805Z,10.50
2023-06-24T16:54:04.855Z,9.90
2023-06-24T16:56:32.227Z,9.63
2023-06-24T16:58:59.380Z,9.93
2023-06-24T17:01:26.641Z,9.40
2023-06-24T17:03:53.798Z,8.30
2023-06-24T17:06:20.992Z,8.50
2023-06-24T17:08:48.137Z,9.40
2023-06-24T17:11:16.133Z,8.98
2023-06-24T17:13:43.465Z,8.70
2023-06-24T17:16:10.663Z,9.40
2023-06-24T17:18:37.830Z,9.68
2023-06-24T17:21:05.025Z,9.13
2023-06-24T17:23:32.136Z,8.27
2023-06-24T17:25:59.543Z,8.65
2023-06-24T17:28:26.659Z,8.57
2023-06-24T17:30:54.415Z,8.82
2023-06-24T17:33:21.906Z,8.63
2023-06-24T17:35:49.127Z,7.90
2023-06-24T17:38:16.468Z,8.52
2023-06-24T17:40:43.774Z,8.40
2023-06-24T17:43:10.950Z,8.45
2023-06-24T17:45:38.178Z,8.32
2023-06-24T17:48:05.512Z,8.63
2023-06-24T17:50:34.616Z,9.02
2023-06-24T17:53:02.526Z,9.60
2023-06-24T17:55:33.496Z,9.02
2023-06-24T17:58:00.977Z,8.98
2023-06-24T18:00:28.091Z,9.15
2023-06-24T18:02:55.411Z,9.40
2023-06-24T18:05:22.719Z,9.07
2023-06-24T18:07:50.534Z,8.88
2023-06-24T18:10:18.770Z,9.07
2023-06-24T18:12:46.117Z,8.88
2023-06-24T18:15:13.259Z,8.40
2023-06-24T18:17:40.549Z,8.70
2023-06-24T18:20:08.353Z,8.90
2023-06-24T18:22:36.731Z,8.95
2023-06-24T18:25:04.562Z,8.88
2023-06-24T18:27:31.957Z,9.27
2023-06-24T18:29:59.126Z,9.52
2023-06-24T18:32:26.287Z,9.55
2023-06-24T18:34:57.546Z,9.52
2023-06-24T18:37:25.226Z,10.85
2023-06-24T18:39:52.575Z,10.85
2023-06-24T18:42:19.998Z,11.05
2023-06-24T18:44:47.039Z,10.82
2023-06-24T18:47:14.305Z,10.77
2023-06-24T18:49:42.001Z,11.23
2023-06-24T18:52:12.085Z,10.30
2023-06-24T18:54:39.421Z,10.90
2023-06-24T18:57:08.014Z,10.65
2023-06-24T18:59:35.148Z,10.57
2023-06-24T19:02:02.444Z,10.70
2023-06-24T19:04:30.604Z,10.93
2023-06-24T19:06:59.277Z,9.90
2023-06-24T19:09:26.517Z,10.80
2023-06-24T19:11:53.550Z,10.32
2023-06-24T19:14:20.842Z,11.43
2023-06-24T19:16:48.007Z,11.60
2023-06-24T19:19:15.311Z,11.60
2023-06-24T19:21:42.459Z,13.45
2023-06-24T19:24:10.326Z,12.73
2023-06-24T19:26:37.641Z,13.32
2023-06-24T19:29:04.792Z,13.02
2023-06-24T19:31:32.105Z,12.82
2023-06-24T19:33:59.218Z,13.43
2023-06-24T19:36:26.314Z,14.30
2023-06-24T19:38:53.560Z,14.70
2023-06-24T19:41:20.679Z,12.85
2023-06-24T19:43:49.634Z,12.82
2023-06-24T19:46:27.997Z,13.07
2023-06-24T19:49:04.014Z,13.00
2023-06-24T19:51:31.277Z,12.63
2023-06-24T19:53:58.549Z,12.82
2023-06-24T19:56:25.831Z,12.68
2023-06-24T19:58:53.619Z,12.93
2023-06-24T20:01:20.932Z,13.95
2023-06-24T20:03:48.181Z,14.07
2023-06-24T20:06:15.288Z,14.55
2023-06-24T20:08:42.340Z,13.98
2023-06-24T20:11:09.629Z,14.65
2023-06-24T20:13:36.664Z,13.85
2023-06-24T20:16:03.913Z,13.43
2023-06-24T20:18:31.074Z,14.70
2023-06-24T20:20:58.398Z,14.13
2023-06-24T20:23:25.639Z,13.45
2023-06-24T20:25:52.969Z,12.20
2023-06-24T20:28:20.103Z,13.60
2023-06-24T20:30:48.361Z,13.25
2023-06-24T20:33:15.552Z,13.50
2023-06-24T20:35:42.734Z,14.30
2023-06-24T20:38:09.938Z,13.63
2023-06-24T20:40:37.916Z,13.90
2023-06-24T20:43:05.293Z,14.18
2023-06-24T20:45:32.324Z,13.73
2023-06-24T20:47:59.432Z,13.40
2023-06-24T20:50:26.740Z,13.70
2023-06-24T20:52:53.935Z,14.10
2023-06-24T20:55:21.347Z,13.52
2023-06-24T20:57:48.678Z,14.30
2023-06-24T21:00:16.396Z,15.02
2023-06-24T21:02:43.709Z,14.60
2023-06-24T21:05:10.911Z,15.13
2023-06-24T21:07:38.136Z,15.35
2023-06-24T21:10:05.513Z,13.95
2023-06-24T21:12:33.879Z,13.63
2023-06-24T21:15:06.519Z,12.43
2023-06-24T21:17:36.111Z,12.10
2023-06-24T21:20:03.834Z,12.25
2023-06-24T21:22:31.034Z,11.60
2023-06-24T21:24:58.099Z,11.18
2023-06-24T21:27:25.252Z,11.35
2023-06-24T21:29:52.529Z,9.98
2023-06-24T21:32:19.599Z,10.40
2023-06-24T21:34:46.768Z,10.05
2023-06-24T21:37:13.839Z,10.85
2023-06-24T21:39:41.103Z,10.85
2023-06-24T21:42:08.300Z,10.30
2023-06-24T21:44:35.429Z,11.52
2023-06-24T21:47:02.657Z,10.55
2023-06-24T21:49:29.856Z,10.68
2023-06-24T21:51:59.007Z,11.02
2023-06-24T21:54:26.172Z,10.55
2023-06-24T21:56:53.448Z,10.48
2023-06-24T21:59:22.819Z,10.30
2023-06-24T22:01:50.310Z,11.30
2023-06-24T22:04:17.437Z,10.82
2023-06-24T22:06:44.601Z,11.38
2023-06-24T22:09:11.905Z,11.05
2023-06-24T22:11:39.041Z,9.70
2023-06-24T22:14:06.192Z,10.75
2023-06-24T22:16:33.554Z,10.18
2023-06-24T22:19:00.649Z,10.65
2023-06-24T22:21:27.785Z,10.90
2023-06-24T22:23:55.143Z,11.02
2023-06-24T22:26:22.290Z,9.77
2023-06-24T22:28:49.577Z,10.43
2023-06-24T22:31:16.693Z,10.55
2023-06-24T22:33:43.842Z,9.55
2023-06-24T22:36:11.057Z,10.00
2023-06-24T22:38:38.318Z,9.80
2023-06-24T22:41:05.740Z,10.35
2023-06-24T22:43:32.990Z,10.38
2023-06-24T22:46:00.177Z,10.50
2023-06-24T22:48:27.379Z,10.13
2023-06-24T22:50:54.479Z,9.82
2023-06-24T22:53:21.491Z,9.60
2023-06-24T22:55:49.978Z,10.35
2023-06-24T22:58:17.154Z,9.70
2023-06-24T23:00:44.228Z,10.30
2023-06-24T23:03:11.860Z,11.95
2023-06-24T23:05:39.310Z,11.05
2023-06-24T23:08:06.706Z,12.00
2023-06-24T23:10:34.385Z,12.32
2023-06-24T23:13:02.416Z,11.85
2023-06-24T23:15:30.427Z,11.25
2023-06-24T23:17:58.614Z,11.52
2023-06-24T23:20:25.951Z,11.15
2023-06-24T23:22:56.103Z,11.18
2023-06-24T23:25:24.474Z,11.38
2023-06-24T23:27:57.481Z,10.93
2023-06-24T23:30:30.882Z,11.52
2023-06-24T23:33:01.537Z,10.75
2023-06-24T23:35:30.051Z,10.63
2023-06-24T23:37:57.343Z,10.10
2023-06-24T23:40:24.909Z,11.10
2023-06-24T23:42:53.004Z,12.10
2023-06-24T23:45:20.492Z,12.07
2023-06-24T23:47:47.643Z,12.10
2023-06-24T23:50:14.912Z,10.68
2023-06-24T23:52:42.284Z,10.80
2023-06-24T23:55:09.717Z,11.65
2023-06-24T23:57:36.744Z,12.50
